createdAt,value
2023-02-15T00:04:13.262Z,24.40
2023-02-15T00:09:34.985Z,23.73
2023-02-15T00:14:56.696Z,23.87
2023-02-15T00:20:19.387Z,23.17
2023-02-15T00:25:41.111Z,25.07
2023-02-15T00:31:08.385Z,23.13
2023-02-15T00:36:30.284Z,23.07
2023-02-15T00:41:52.048Z,23.00
2023-02-15T00:47:13.779Z,23.33
2023-02-15T00:52:35.616Z,23.43
2023-02-15T00:57:57.357Z,22.93
2023-02-15T01:03:20.685Z,24.20
2023-02-15T01:08:42.576Z,24.43
2023-02-15T01:14:05.014Z,22.47
2023-02-15T01:19:26.721Z,23.50
2023-02-15T01:24:51.019Z,23.43
2023-02-15T01:30:14.090Z,22.90
2023-02-15T01:35:37.531Z,23.53
2023-02-15T01:41:19.269Z,21.80
2023-02-15T01:46:51.036Z,21.33
2023-02-15T01:52:16.913Z,22.23
2023-02-15T01:57:39.786Z,20.47
2023-02-15T02:03:02.505Z,20.50
2023-02-15T02:08:25.132Z,19.90
2023-02-15T02:13:47.886Z,21.37
2023-02-15T02:19:21.888Z,21.03
2023-02-15T02:25:20.643Z,20.47
2023-02-15T02:31:15.886Z,20.17
2023-02-15T02:36:49.265Z,20.80
2023-02-15T02:42:37.195Z,22.17
2023-02-15T02:48:09.041Z,22.37
2023-02-15T02:53:33.821Z,23.40
2023-02-15T02:59:03.059Z,23.63
2023-02-15T03:04:32.197Z,21.97
2023-02-15T03:09:55.528Z,21.20
2023-02-15T03:15:21.257Z,21.63
2023-02-15T03:20:44.017Z,22.07
2023-02-15T03:26:08.834Z,21.30
2023-02-15T03:31:35.344Z,22.33
2023-02-15T03:37:08.233Z,21.23
2023-02-15T03:42:34.851Z,21.20
2023-02-15T03:48:00.474Z,19.67
2023-02-15T03:53:24.618Z,20.43
2023-02-15T03:59:04.892Z,19.90
2023-02-15T04:04:37.241Z,19.57
2023-02-15T04:10:17.385Z,18.97
2023-02-15T04:15:57.958Z,19.27
2023-02-15T04:21:39.550Z,19.57
2023-02-15T04:27:01.772Z,18.97
2023-02-15T04:32:23.469Z,19.53
2023-02-15T04:37:45.435Z,19.67
2023-02-15T04:43:07.132Z,18.87
2023-02-15T04:48:28.833Z,19.83
2023-02-15T04:53:50.665Z,19.87
2023-02-15T04:59:12.758Z,19.37
2023-02-15T05:04:34.577Z,19.27
2023-02-15T05:09:56.376Z,19.13
2023-02-15T05:15:18.199Z,18.47
2023-02-15T05:20:39.937Z,19.10
2023-02-15T05:26:20.124Z,18.07
2023-02-15T05:31:42.172Z,19.73
2023-02-15T05:37:04.011Z,18.33
2023-02-15T05:42:25.837Z,18.10
2023-02-15T05:47:47.573Z,19.57
2023-02-15T05:53:09.296Z,18.83
2023-02-15T05:58:33.935Z,17.77
2023-02-15T06:03:56.757Z,18.13
2023-02-15T06:09:21.123Z,20.47
2023-02-15T06:14:43.217Z,20.47
2023-02-15T06:20:05.674Z,19.50
2023-02-15T06:25:27.398Z,19.77
2023-02-15T06:30:49.273Z,20.40
2023-02-15T06:36:11.134Z,19.73
2023-02-15T06:41:33.128Z,19.57
2023-02-15T06:46:55.037Z,20.23
2023-02-15T06:52:16.826Z,21.00
2023-02-15T06:57:38.612Z,20.67
2023-02-15T07:03:00.389Z,19.07
2023-02-15T07:08:22.196Z,19.73
2023-02-15T07:13:44.005Z,19.43
2023-02-15T07:19:05.890Z,20.77
2023-02-15T07:24:27.641Z,21.93
2023-02-15T07:29:49.381Z,20.17
2023-02-15T07:35:11.147Z,22.13
2023-02-15T07:40:33.882Z,21.00
2023-02-15T07:45:59.707Z,19.93
2023-02-15T07:51:21.577Z,19.90
2023-02-15T07:56:43.292Z,20.80
2023-02-15T08:02:10.332Z,18.20
2023-02-15T08:07:32.027Z,21.00
2023-02-15T08:12:53.830Z,20.57
2023-02-15T08:18:15.513Z,18.60
2023-02-15T08:23:37.238Z,20.70
2023-02-15T08:28:59.974Z,20.20
2023-02-15T08:34:22.216Z,20.83
2023-02-15T08:39:44.430Z,21.30
2023-02-15T08:45:06.538Z,20.63
2023-02-15T08:50:28.364Z,21.63
2023-02-15T08:55:59.909Z,21.40
2023-02-15T09:01:24.764Z,23.00
2023-02-15T09:06:49.254Z,22.30
2023-02-15T09:12:11.158Z,23.90
2023-02-15T09:17:32.915Z,22.47
2023-02-15T09:22:57.612Z,22.63
2023-02-15T09:28:20.279Z,22.33
2023-02-15T09:33:43.876Z,22.27
2023-02-15T09:39:11.849Z,24.50
2023-02-15T09:44:58.073Z,24.13
2023-02-15T09:50:44.417Z,23.80
2023-02-15T09:56:21.007Z,23.70
2023-02-15T10:01:57.454Z,23.00
2023-02-15T10:07:35.577Z,24.30
2023-02-15T10:13:32.174Z,23.67
2023-02-15T10:19:34.340Z,23.50
2023-02-15T10:25:32.309Z,23.53
2023-02-15T10:31:40.456Z,23.30
2023-02-15T10:37:33.184Z,23.83
2023-02-15T10:42:54.906Z,23.17
2023-02-15T10:48:42.785Z,23.97
2023-02-15T10:54:22.991Z,24.37
2023-02-15T11:00:05.623Z,23.37
2023-02-15T11:05:42.411Z,23.13
2023-02-15T11:11:13.111Z,21.90
2023-02-15T11:16:45.256Z,23.30
2023-02-15T11:22:07.698Z,22.50
2023-02-15T11:27:36.111Z,22.50
2023-02-15T11:33:02.892Z,22.97
2023-02-15T11:38:29.805Z,22.47
2023-02-15T11:44:08.577Z,21.50
2023-02-15T11:49:35.570Z,22.97
2023-02-15T11:54:57.361Z,22.77
2023-02-15T12:00:37.056Z,21.87
2023-02-15T12:06:03.041Z,21.43
2023-02-15T12:11:36.397Z,22.53
2023-02-15T12:16:58.223Z,23.27
2023-02-15T12:22:24.770Z,23.13
2023-02-15T12:27:47.890Z,22.33
2023-02-15T12:33:23.761Z,24.65
2023-02-15T12:39:14.318Z,25.10
2023-02-15T12:44:38.014Z,23.95
2023-02-15T12:50:23.267Z,24.03
2023-02-15T12:55:53.656Z,21.73
2023-02-15T13:01:18.558Z,22.37
2023-02-15T13:06:49.712Z,21.85
2023-02-15T13:12:22.907Z,23.03
2023-02-15T13:17:44.921Z,20.92
2023-02-15T13:23:19.425Z,21.70
2023-02-15T13:28:48.473Z,22.25
2023-02-15T13:34:18.003Z,22.02
2023-02-15T13:39:48.175Z,23.55
2023-02-15T13:45:28.894Z,23.55
2023-02-15T13:51:02.186Z,23.95
2023-02-15T13:56:45.963Z,22.75
2023-02-15T14:02:29.540Z,23.05
2023-02-15T14:08:11.170Z,21.97
2023-02-15T14:13:49.009Z,21.75
2023-02-15T14:19:29.564Z,21.15
2023-02-15T14:25:27.218Z,20.83
2023-02-15T14:30:51.663Z,18.40
2023-02-15T14:36:20.492Z,19.30
2023-02-15T14:41:58.454Z,18.30
2023-02-15T14:47:26.427Z,19.38
2023-02-15T14:53:16.729Z,20.67
2023-02-15T14:58:39.128Z,20.55
2023-02-15T15:04:09.695Z,20.73
2023-02-15T15:09:34.897Z,20.08
2023-02-15T15:14:56.640Z,19.75
2023-02-15T15:20:27.993Z,19.60
2023-02-15T15:25:56.525Z,20.85
2023-02-15T15:31:31.435Z,19.70
2023-02-15T15:37:18.131Z,20.17
2023-02-15T15:43:09.056Z,19.80
2023-02-15T15:48:41.354Z,18.75
2023-02-15T15:54:04.836Z,18.85
2023-02-15T15:59:32.738Z,20.63
2023-02-15T16:04:54.847Z,18.98
2023-02-15T16:10:24.603Z,19.83
2023-02-15T16:15:53.815Z,18.88
2023-02-15T16:21:22.053Z,18.75
2023-02-15T16:26:54.215Z,19.50
2023-02-15T16:32:21.301Z,19.95
2023-02-15T16:37:43.315Z,19.75
2023-02-15T16:43:11.697Z,21.15
2023-02-15T16:48:40.105Z,19.67
2023-02-15T16:54:08.190Z,20.17
2023-02-15T16:59:51.641Z,19.95
2023-02-15T17:05:14.578Z,19.70
2023-02-15T17:10:42.538Z,20.05
2023-02-15T17:16:04.650Z,20.17
2023-02-15T17:21:33.234Z,19.60
2023-02-15T17:27:01.445Z,21.20
2023-02-15T17:32:27.987Z,22.37
2023-02-15T17:37:50.810Z,22.43
2023-02-15T17:43:12.590Z,21.00
2023-02-15T17:48:36.469Z,22.42
2023-02-15T17:54:17.086Z,24.17
2023-02-15T17:59:57.483Z,24.87
2023-02-15T18:05:38.130Z,26.38
2023-02-15T18:11:19.386Z,25.70
2023-02-15T18:16:45.640Z,25.20
2023-02-15T18:22:19.291Z,24.57
2023-02-15T18:27:41.022Z,23.33
2023-02-15T18:33:02.958Z,24.97
2023-02-15T18:38:24.679Z,23.47
2023-02-15T18:43:48.810Z,23.40
2023-02-15T18:49:10.559Z,23.77
2023-02-15T18:54:32.334Z,24.20
2023-02-15T18:59:54.078Z,24.17
2023-02-15T19:05:17.904Z,24.30
2023-02-15T19:10:39.729Z,24.80
2023-02-15T19:16:01.928Z,23.03
2023-02-15T19:21:24.520Z,22.83
2023-02-15T19:26:48.028Z,25.40
2023-02-15T19:32:11.782Z,20.37
2023-02-15T19:37:43.635Z,19.73
2023-02-15T19:43:15.260Z,18.83
2023-02-15T19:48:37.038Z,18.33
2023-02-15T19:53:59.748Z,22.43
2023-02-15T19:59:35.235Z,23.97
2023-02-15T20:04:57.043Z,26.40
2023-02-15T20:10:31.827Z,26.03
2023-02-15T20:15:53.639Z,24.87
2023-02-15T20:21:16.368Z,26.77
2023-02-15T20:26:38.522Z,23.57
2023-02-15T20:32:01.424Z,22.93
2023-02-15T20:37:28.823Z,22.13
2023-02-15T20:42:50.733Z,21.63
2023-02-15T20:48:12.508Z,20.90
2023-02-15T20:53:34.231Z,20.90
2023-02-15T20:58:55.950Z,21.67
2023-02-15T21:04:25.516Z,20.47
2023-02-15T21:09:47.461Z,19.67
2023-02-15T21:15:41.520Z,19.77
2023-02-15T21:21:06.208Z,18.77
2023-02-15T21:26:28.149Z,18.27
2023-02-15T21:31:50.302Z,18.07
2023-02-15T21:37:34.868Z,18.00
2023-02-15T21:43:15.896Z,17.90
2023-02-15T21:48:37.635Z,17.60
2023-02-15T21:53:59.678Z,18.17
2023-02-15T21:59:21.462Z,18.93
2023-02-15T22:04:43.172Z,18.63
2023-02-15T22:10:05.459Z,19.57
2023-02-15T22:15:33.712Z,22.87
2023-02-15T22:20:56.345Z,21.07
2023-02-15T22:26:22.982Z,20.30
2023-02-15T22:31:45.063Z,21.20
2023-02-15T22:37:08.470Z,20.57
2023-02-15T22:42:30.371Z,20.30
2023-02-15T22:47:54.471Z,18.83
2023-02-15T22:53:16.329Z,17.77
2023-02-15T22:58:38.111Z,16.60
2023-02-15T23:04:03.068Z,18.63
2023-02-15T23:09:25.326Z,19.90
2023-02-15T23:14:47.037Z,17.33
2023-02-15T23:20:14.398Z,17.90
2023-02-15T23:25:36.115Z,16.20
2023-02-15T23:30:59.333Z,15.37
2023-02-15T23:36:39.109Z,15.53
2023-02-15T23:42:03.610Z,15.30
2023-02-15T23:47:50.054Z,16.57
2023-02-15T23:53:11.780Z,17.87
2023-02-15T23:58:37.284Z,17.87
